Current Conditions
Mostly Scattered
Clouds



Pressure
30.13 (inHG) - 1020.32 (mb)
Visibility

10.0 (mimiles) - 16.1 (km)
   Temperature
88  °F
31°C
70  °F
Dewpoint
55  %
 Humidity
   Wind Speed
8  mph
7  kts
13  km/h
3.6  m/s
   Wind Direction
 250°
West South
West
   Airport Data
KTZR
Location Bolton Field 6 mi (9.65 km)
Metar :KTZR 151747Z 25007KT 10SM SCT048 31/21 A3013
Mon 15th July 13:47 pm
   Raw Metar Info
Raw METAR is the most common format in the world for the transmission of observational weather data. It is highly standardized through the International Civil Aviation Organization (ICAO), which allows it to be understood throughout most of the world.
   API Info
Data Provided by
https://www.checkwx.com/weather/KTZR
   © Info
CSS/SVG/PHP scripts were developed by weather34.com for use in the weather34 template © 2015-2019

Guide Info provided by Metar-Wikipedia